sensor_id;sensor_type;location;lat;lon;timestamp;P1;durP1;ratioP1;P2;durP2;ratioP2
50858;SDS011;36826;47.514;19.056;2023-07-09T00:01:41;5.68;;;2.95;;
50858;SDS011;36826;47.514;19.056;2023-07-09T00:04:08;3.55;;;2.55;;
50858;SDS011;36826;47.514;19.056;2023-07-09T00:06:35;4.05;;;2.88;;
50858;SDS011;36826;47.514;19.056;2023-07-09T00:09:01;4.00;;;2.83;;
50858;SDS011;36826;47.514;19.056;2023-07-09T00:11:27;4.10;;;2.95;;
50858;SDS011;36826;47.514;19.056;2023-07-09T00:13:52;4.80;;;3.20;;
50858;SDS011;36826;47.514;19.056;2023-07-09T00:16:19;5.05;;;2.78;;
50858;SDS011;36826;47.514;19.056;2023-07-09T00:18:48;4.80;;;3.20;;
50858;SDS011;36826;47.514;19.056;2023-07-09T00:21:14;3.35;;;2.80;;
50858;SDS011;36826;47.514;19.056;2023-07-09T00:23:40;4.15;;;2.50;;
50858;SDS011;36826;47.514;19.056;2023-07-09T00:26:10;4.80;;;3.00;;
50858;SDS011;36826;47.514;19.056;2023-07-09T00:28:39;4.68;;;3.00;;
50858;SDS011;36826;47.514;19.056;2023-07-09T00:31:07;3.97;;;2.80;;
50858;SDS011;36826;47.514;19.056;2023-07-09T00:33:36;7.20;;;2.83;;
50858;SDS011;36826;47.514;19.056;2023-07-09T00:36:04;4.00;;;3.00;;
50858;SDS011;36826;47.514;19.056;2023-07-09T00:38:39;4.32;;;2.90;;
50858;SDS011;36826;47.514;19.056;2023-07-09T00:41:08;5.28;;;2.70;;
50858;SDS011;36826;47.514;19.056;2023-07-09T00:43:42;4.18;;;2.92;;
50858;SDS011;36826;47.514;19.056;2023-07-09T00:49:01;4.32;;;2.85;;
50858;SDS011;36826;47.514;19.056;2023-07-09T00:51:36;3.35;;;2.80;;
50858;SDS011;36826;47.514;19.056;2023-07-09T00:54:12;4.72;;;2.80;;
50858;SDS011;36826;47.514;19.056;2023-07-09T00:56:44;4.68;;;2.58;;
50858;SDS011;36826;47.514;19.056;2023-07-09T00:59:16;5.53;;;2.80;;
50858;SDS011;36826;47.514;19.056;2023-07-09T01:01:45;6.38;;;2.83;;
50858;SDS011;36826;47.514;19.056;2023-07-09T01:04:15;7.15;;;3.20;;
50858;SDS011;36826;47.514;19.056;2023-07-09T01:06:47;3.17;;;2.55;;
50858;SDS011;36826;47.514;19.056;2023-07-09T01:09:16;4.25;;;2.90;;
50858;SDS011;36826;47.514;19.056;2023-07-09T01:11:42;4.50;;;2.90;;
50858;SDS011;36826;47.514;19.056;2023-07-09T01:14:09;4.95;;;3.08;;
50858;SDS011;36826;47.514;19.056;2023-07-09T01:16:39;4.45;;;3.05;;
50858;SDS011;36826;47.514;19.056;2023-07-09T01:19:08;5.28;;;3.20;;
50858;SDS011;36826;47.514;19.056;2023-07-09T01:21:34;4.40;;;3.00;;
50858;SDS011;36826;47.514;19.056;2023-07-09T01:24:10;3.83;;;3.20;;
50858;SDS011;36826;47.514;19.056;2023-07-09T01:26:40;5.00;;;3.58;;
50858;SDS011;36826;47.514;19.056;2023-07-09T01:29:06;3.72;;;2.90;;
50858;SDS011;36826;47.514;19.056;2023-07-09T01:31:31;4.18;;;3.05;;
50858;SDS011;36826;47.514;19.056;2023-07-09T01:33:57;5.82;;;3.05;;
50858;SDS011;36826;47.514;19.056;2023-07-09T01:36:23;6.43;;;3.20;;
50858;SDS011;36826;47.514;19.056;2023-07-09T01:38:49;4.63;;;3.30;;
50858;SDS011;36826;47.514;19.056;2023-07-09T01:41:16;5.83;;;3.73;;
50858;SDS011;36826;47.514;19.056;2023-07-09T01:43:42;4.50;;;3.22;;
50858;SDS011;36826;47.514;19.056;2023-07-09T01:46:09;7.78;;;3.33;;
50858;SDS011;36826;47.514;19.056;2023-07-09T01:48:37;4.50;;;3.20;;
50858;SDS011;36826;47.514;19.056;2023-07-09T01:51:09;3.75;;;3.30;;
50858;SDS011;36826;47.514;19.056;2023-07-09T01:53:37;6.90;;;3.28;;
50858;SDS011;36826;47.514;19.056;2023-07-09T01:56:05;4.88;;;3.20;;
50858;SDS011;36826;47.514;19.056;2023-07-09T01:58:33;4.35;;;3.00;;
50858;SDS011;36826;47.514;19.056;2023-07-09T02:00:58;6.28;;;3.20;;
50858;SDS011;36826;47.514;19.056;2023-07-09T02:03:24;3.85;;;2.88;;
50858;SDS011;36826;47.514;19.056;2023-07-09T02:05:52;4.93;;;2.83;;
50858;SDS011;36826;47.514;19.056;2023-07-09T02:08:18;5.03;;;3.40;;
50858;SDS011;36826;47.514;19.056;2023-07-09T02:10:44;4.82;;;3.15;;
50858;SDS011;36826;47.514;19.056;2023-07-09T02:13:12;4.50;;;3.00;;
50858;SDS011;36826;47.514;19.056;2023-07-09T02:15:38;5.28;;;3.40;;
50858;SDS011;36826;47.514;19.056;2023-07-09T02:18:08;5.63;;;3.45;;
50858;SDS011;36826;47.514;19.056;2023-07-09T02:20:37;5.15;;;3.10;;
50858;SDS011;36826;47.514;19.056;2023-07-09T02:23:02;4.63;;;3.17;;
50858;SDS011;36826;47.514;19.056;2023-07-09T02:25:28;4.85;;;3.15;;
50858;SDS011;36826;47.514;19.056;2023-07-09T02:27:54;6.40;;;3.30;;
50858;SDS011;36826;47.514;19.056;2023-07-09T02:30:19;4.60;;;3.30;;
50858;SDS011;36826;47.514;19.056;2023-07-09T02:32:45;5.13;;;2.95;;
50858;SDS011;36826;47.514;19.056;2023-07-09T02:35:10;4.88;;;3.05;;
50858;SDS011;36826;47.514;19.056;2023-07-09T02:37:36;3.38;;;2.92;;
50858;SDS011;36826;47.514;19.056;2023-07-09T02:40:01;4.32;;;3.30;;
50858;SDS011;36826;47.514;19.056;2023-07-09T02:42:29;4.65;;;2.97;;
50858;SDS011;36826;47.514;19.056;2023-07-09T02:44:54;4.10;;;3.10;;
50858;SDS011;36826;47.514;19.056;2023-07-09T02:47:19;3.95;;;2.60;;
50858;SDS011;36826;47.514;19.056;2023-07-09T02:49:45;5.80;;;2.80;;
50858;SDS011;36826;47.514;19.056;2023-07-09T02:52:10;3.92;;;2.90;;
50858;SDS011;36826;47.514;19.056;2023-07-09T02:54:36;5.35;;;2.75;;
50858;SDS011;36826;47.514;19.056;2023-07-09T02:57:02;4.82;;;2.70;;
50858;SDS011;36826;47.514;19.056;2023-07-09T02:59:27;4.55;;;3.03;;
50858;SDS011;36826;47.514;19.056;2023-07-09T03:01:54;4.93;;;3.13;;
50858;SDS011;36826;47.514;19.056;2023-07-09T03:04:20;5.25;;;2.90;;
50858;SDS011;36826;47.514;19.056;2023-07-09T03:06:46;3.97;;;2.80;;
50858;SDS011;36826;47.514;19.056;2023-07-09T03:09:12;4.53;;;3.10;;
50858;SDS011;36826;47.514;19.056;2023-07-09T03:11:37;6.20;;;3.10;;
50858;SDS011;36826;47.514;19.056;2023-07-09T03:14:03;5.72;;;2.95;;
50858;SDS011;36826;47.514;19.056;2023-07-09T03:16:30;4.57;;;2.80;;
50858;SDS011;36826;47.514;19.056;2023-07-09T03:18:57;3.63;;;2.45;;
50858;SDS011;36826;47.514;19.056;2023-07-09T03:21:24;6.22;;;2.90;;
50858;SDS011;36826;47.514;19.056;2023-07-09T03:23:51;4.45;;;2.55;;
50858;SDS011;36826;47.514;19.056;2023-07-09T03:26:17;5.88;;;2.60;;
50858;SDS011;36826;47.514;19.056;2023-07-09T03:28:43;4.55;;;2.50;;
50858;SDS011;36826;47.514;19.056;2023-07-09T03:31:09;3.53;;;2.35;;
50858;SDS011;36826;47.514;19.056;2023-07-09T03:33:34;4.18;;;2.60;;
50858;SDS011;36826;47.514;19.056;2023-07-09T03:36:00;4.30;;;2.28;;
50858;SDS011;36826;47.514;19.056;2023-07-09T03:38:25;5.70;;;2.45;;
50858;SDS011;36826;47.514;19.056;2023-07-09T03:40:52;3.67;;;2.35;;
50858;SDS011;36826;47.514;19.056;2023-07-09T03:43:18;3.50;;;2.55;;
50858;SDS011;36826;47.514;19.056;2023-07-09T03:45:44;4.82;;;2.53;;
50858;SDS011;36826;47.514;19.056;2023-07-09T03:48:11;5.32;;;2.90;;
50858;SDS011;36826;47.514;19.056;2023-07-09T03:50:37;4.90;;;2.40;;
50858;SDS011;36826;47.514;19.056;2023-07-09T03:53:02;5.57;;;2.83;;
50858;SDS011;36826;47.514;19.056;2023-07-09T03:55:28;3.88;;;2.42;;
50858;SDS011;36826;47.514;19.056;2023-07-09T03:57:54;3.13;;;2.20;;
50858;SDS011;36826;47.514;19.056;2023-07-09T04:00:20;3.78;;;2.38;;
50858;SDS011;36826;47.514;19.056;2023-07-09T04:02:46;6.18;;;2.30;;
50858;SDS011;36826;47.514;19.056;2023-07-09T04:05:12;2.25;;;1.80;;
50858;SDS011;36826;47.514;19.056;2023-07-09T04:07:38;3.70;;;1.90;;
50858;SDS011;36826;47.514;19.056;2023-07-09T04:10:04;3.85;;;2.03;;
50858;SDS011;36826;47.514;19.056;2023-07-09T04:12:31;3.22;;;2.08;;
50858;SDS011;36826;47.514;19.056;2023-07-09T04:14:57;3.13;;;2.17;;
50858;SDS011;36826;47.514;19.056;2023-07-09T04:17:22;3.28;;;2.47;;
50858;SDS011;36826;47.514;19.056;2023-07-09T04:19:48;3.30;;;2.13;;
50858;SDS011;36826;47.514;19.056;2023-07-09T04:22:16;4.90;;;2.50;;
50858;SDS011;36826;47.514;19.056;2023-07-09T04:24:42;3.58;;;2.13;;
50858;SDS011;36826;47.514;19.056;2023-07-09T04:27:08;3.40;;;2.20;;
50858;SDS011;36826;47.514;19.056;2023-07-09T04:29:34;4.25;;;2.55;;
50858;SDS011;36826;47.514;19.056;2023-07-09T04:32:00;2.97;;;2.30;;
50858;SDS011;36826;47.514;19.056;2023-07-09T04:34:28;2.72;;;2.30;;
50858;SDS011;36826;47.514;19.056;2023-07-09T04:36:54;7.05;;;2.70;;
50858;SDS011;36826;47.514;19.056;2023-07-09T04:39:19;3.60;;;2.35;;
50858;SDS011;36826;47.514;19.056;2023-07-09T04:41:45;4.60;;;2.35;;
50858;SDS011;36826;47.514;19.056;2023-07-09T04:44:11;2.65;;;1.95;;
50858;SDS011;36826;47.514;19.056;2023-07-09T04:46:37;3.30;;;2.38;;
50858;SDS011;36826;47.514;19.056;2023-07-09T04:49:03;4.72;;;2.30;;
50858;SDS011;36826;47.514;19.056;2023-07-09T04:51:28;3.08;;;2.17;;
50858;SDS011;36826;47.514;19.056;2023-07-09T04:53:54;1.92;;;1.75;;
50858;SDS011;36826;47.514;19.056;2023-07-09T04:56:19;2.40;;;2.20;;
50858;SDS011;36826;47.514;19.056;2023-07-09T04:58:45;3.75;;;2.50;;
50858;SDS011;36826;47.514;19.056;2023-07-09T05:01:10;2.90;;;2.28;;
50858;SDS011;36826;47.514;19.056;2023-07-09T05:03:36;3.30;;;2.00;;
50858;SDS011;36826;47.514;19.056;2023-07-09T05:06:03;3.03;;;2.10;;
50858;SDS011;36826;47.514;19.056;2023-07-09T05:08:29;2.55;;;2.00;;
50858;SDS011;36826;47.514;19.056;2023-07-09T05:10:56;2.63;;;2.03;;
50858;SDS011;36826;47.514;19.056;2023-07-09T05:13:23;3.33;;;2.20;;
50858;SDS011;36826;47.514;19.056;2023-07-09T05:15:49;2.40;;;2.00;;
50858;SDS011;36826;47.514;19.056;2023-07-09T05:18:15;3.65;;;2.03;;
50858;SDS011;36826;47.514;19.056;2023-07-09T05:20:42;3.25;;;2.20;;
50858;SDS011;36826;47.514;19.056;2023-07-09T05:23:08;2.47;;;2.17;;
50858;SDS011;36826;47.514;19.056;2023-07-09T05:25:34;3.92;;;2.30;;
50858;SDS011;36826;47.514;19.056;2023-07-09T05:27:59;3.53;;;2.30;;
50858;SDS011;36826;47.514;19.056;2023-07-09T05:30:25;3.07;;;2.40;;
50858;SDS011;36826;47.514;19.056;2023-07-09T05:32:51;4.40;;;2.40;;
50858;SDS011;36826;47.514;19.056;2023-07-09T05:35:18;2.50;;;2.08;;
50858;SDS011;36826;47.514;19.056;2023-07-09T05:37:44;4.28;;;2.00;;
50858;SDS011;36826;47.514;19.056;2023-07-09T05:40:10;3.90;;;2.50;;
50858;SDS011;36826;47.514;19.056;2023-07-09T05:42:36;3.35;;;2.08;;
50858;SDS011;36826;47.514;19.056;2023-07-09T05:45:02;4.25;;;2.10;;
50858;SDS011;36826;47.514;19.056;2023-07-09T05:47:28;3.00;;;2.17;;
50858;SDS011;36826;47.514;19.056;2023-07-09T05:49:53;3.63;;;2.20;;
50858;SDS011;36826;47.514;19.056;2023-07-09T05:52:20;4.80;;;2.10;;
50858;SDS011;36826;47.514;19.056;2023-07-09T05:54:48;3.25;;;2.30;;
50858;SDS011;36826;47.514;19.056;2023-07-09T05:57:14;2.53;;;2.15;;
50858;SDS011;36826;47.514;19.056;2023-07-09T05:59:40;4.10;;;2.30;;
50858;SDS011;36826;47.514;19.056;2023-07-09T06:04:43;2.72;;;2.20;;
50858;SDS011;36826;47.514;19.056;2023-07-09T06:09:34;5.85;;;2.28;;
50858;SDS011;36826;47.514;19.056;2023-07-09T06:12:00;3.40;;;2.50;;
50858;SDS011;36826;47.514;19.056;2023-07-09T06:14:27;2.80;;;2.30;;
50858;SDS011;36826;47.514;19.056;2023-07-09T06:16:52;4.28;;;2.35;;
50858;SDS011;36826;47.514;19.056;2023-07-09T06:19:18;3.65;;;2.22;;
50858;SDS011;36826;47.514;19.056;2023-07-09T06:21:43;3.65;;;2.22;;
50858;SDS011;36826;47.514;19.056;2023-07-09T06:24:09;4.95;;;2.20;;
50858;SDS011;36826;47.514;19.056;2023-07-09T06:26:35;5.07;;;2.38;;
50858;SDS011;36826;47.514;19.056;2023-07-09T06:29:01;3.78;;;2.40;;
50858;SDS011;36826;47.514;19.056;2023-07-09T06:31:27;2.42;;;1.98;;
50858;SDS011;36826;47.514;19.056;2023-07-09T06:33:53;4.57;;;2.40;;
50858;SDS011;36826;47.514;19.056;2023-07-09T06:36:18;2.70;;;2.20;;
50858;SDS011;36826;47.514;19.056;2023-07-09T06:38:44;2.72;;;2.05;;
50858;SDS011;36826;47.514;19.056;2023-07-09T06:41:11;5.43;;;2.05;;
50858;SDS011;36826;47.514;19.056;2023-07-09T06:43:37;3.03;;;2.30;;
50858;SDS011;36826;47.514;19.056;2023-07-09T06:46:06;2.22;;;2.03;;
50858;SDS011;36826;47.514;19.056;2023-07-09T06:48:33;3.45;;;2.00;;
50858;SDS011;36826;47.514;19.056;2023-07-09T06:50:59;2.28;;;1.98;;
50858;SDS011;36826;47.514;19.056;2023-07-09T06:53:25;2.28;;;2.08;;
50858;SDS011;36826;47.514;19.056;2023-07-09T06:55:52;2.78;;;2.00;;
50858;SDS011;36826;47.514;19.056;2023-07-09T06:58:20;2.55;;;2.35;;
50858;SDS011;36826;47.514;19.056;2023-07-09T07:00:48;3.35;;;2.25;;
50858;SDS011;36826;47.514;19.056;2023-07-09T07:03:14;2.10;;;1.90;;
50858;SDS011;36826;47.514;19.056;2023-07-09T07:05:44;3.42;;;2.00;;
50858;SDS011;36826;47.514;19.056;2023-07-09T07:08:10;3.70;;;2.03;;
50858;SDS011;36826;47.514;19.056;2023-07-09T07:10:38;3.58;;;2.00;;
50858;SDS011;36826;47.514;19.056;2023-07-09T07:13:03;2.38;;;1.90;;
50858;SDS011;36826;47.514;19.056;2023-07-09T07:15:29;3.40;;;2.10;;
50858;SDS011;36826;47.514;19.056;2023-07-09T07:17:54;2.83;;;1.90;;
50858;SDS011;36826;47.514;19.056;2023-07-09T07:20:20;1.80;;;1.70;;
50858;SDS011;36826;47.514;19.056;2023-07-09T07:22:45;3.17;;;2.30;;
50858;SDS011;36826;47.514;19.056;2023-07-09T07:25:11;3.63;;;2.13;;
50858;SDS011;36826;47.514;19.056;2023-07-09T07:27:37;2.25;;;2.05;;
50858;SDS011;36826;47.514;19.056;2023-07-09T07:30:03;2.47;;;2.10;;
50858;SDS011;36826;47.514;19.056;2023-07-09T07:32:29;2.58;;;2.10;;
50858;SDS011;36826;47.514;19.056;2023-07-09T07:34:54;2.80;;;2.35;;
50858;SDS011;36826;47.514;19.056;2023-07-09T07:37:20;2.40;;;2.20;;
50858;SDS011;36826;47.514;19.056;2023-07-09T07:39:49;3.88;;;2.60;;
50858;SDS011;36826;47.514;19.056;2023-07-09T07:42:14;3.17;;;2.60;;
50858;SDS011;36826;47.514;19.056;2023-07-09T07:44:40;2.58;;;2.38;;
50858;SDS011;36826;47.514;19.056;2023-07-09T07:47:05;3.42;;;2.47;;
50858;SDS011;36826;47.514;19.056;2023-07-09T07:49:31;2.63;;;2.42;;
50858;SDS011;36826;47.514;19.056;2023-07-09T07:51:57;2.53;;;2.30;;
50858;SDS011;36826;47.514;19.056;2023-07-09T07:54:22;2.55;;;2.35;;
50858;SDS011;36826;47.514;19.056;2023-07-09T07:56:48;3.67;;;2.60;;
50858;SDS011;36826;47.514;19.056;2023-07-09T07:59:13;4.40;;;2.65;;
50858;SDS011;36826;47.514;19.056;2023-07-09T08:01:39;2.88;;;2.30;;
50858;SDS011;36826;47.514;19.056;2023-07-09T08:04:05;2.40;;;2.20;;
50858;SDS011;36826;47.514;19.056;2023-07-09T08:06:31;3.33;;;2.15;;
50858;SDS011;36826;47.514;19.056;2023-07-09T08:08:57;3.20;;;2.00;;
50858;SDS011;36826;47.514;19.056;2023-07-09T08:11:23;2.25;;;2.05;;
50858;SDS011;36826;47.514;19.056;2023-07-09T08:13:49;3.88;;;1.98;;
50858;SDS011;36826;47.514;19.056;2023-07-09T08:16:15;4.72;;;2.10;;
50858;SDS011;36826;47.514;19.056;2023-07-09T08:18:41;2.05;;;1.90;;
50858;SDS011;36826;47.514;19.056;2023-07-09T08:21:06;3.10;;;2.30;;
50858;SDS011;36826;47.514;19.056;2023-07-09T08:23:32;2.92;;;2.10;;
50858;SDS011;36826;47.514;19.056;2023-07-09T08:25:58;2.03;;;1.80;;
50858;SDS011;36826;47.514;19.056;2023-07-09T08:28:27;1.98;;;1.88;;
50858;SDS011;36826;47.514;19.056;2023-07-09T08:30:52;2.30;;;2.03;;
50858;SDS011;36826;47.514;19.056;2023-07-09T08:33:18;3.35;;;2.08;;
50858;SDS011;36826;47.514;19.056;2023-07-09T08:35:44;2.33;;;1.90;;
50858;SDS011;36826;47.514;19.056;2023-07-09T08:38:10;2.28;;;2.08;;
50858;SDS011;36826;47.514;19.056;2023-07-09T08:40:42;2.55;;;2.30;;
50858;SDS011;36826;47.514;19.056;2023-07-09T08:46:27;2.30;;;2.05;;
50858;SDS011;36826;47.514;19.056;2023-07-09T08:49:02;2.35;;;1.85;;
50858;SDS011;36826;47.514;19.056;2023-07-09T08:51:36;2.28;;;1.75;;
50858;SDS011;36826;47.514;19.056;2023-07-09T08:54:05;3.78;;;1.83;;
50858;SDS011;36826;47.514;19.056;2023-07-09T08:59:07;3.05;;;1.55;;
50858;SDS011;36826;47.514;19.056;2023-07-09T09:01:43;1.73;;;1.58;;
50858;SDS011;36826;47.514;19.056;2023-07-09T09:04:29;2.30;;;1.50;;
50858;SDS011;36826;47.514;19.056;2023-07-09T09:12:17;3.20;;;1.80;;
50858;SDS011;36826;47.514;19.056;2023-07-09T09:15:29;2.45;;;1.60;;
50858;SDS011;36826;47.514;19.056;2023-07-09T09:17:39;3.20;;;1.70;;
50858;SDS011;36826;47.514;19.056;2023-07-09T09:20:06;1.60;;;1.42;;
50858;SDS011;36826;47.514;19.056;2023-07-09T09:22:46;6.72;;;1.98;;
50858;SDS011;36826;47.514;19.056;2023-07-09T09:27:56;2.95;;;1.50;;
50858;SDS011;36826;47.514;19.056;2023-07-09T09:30:22;2.35;;;1.70;;
50858;SDS011;36826;47.514;19.056;2023-07-09T09:32:54;1.92;;;1.55;;
50858;SDS011;36826;47.514;19.056;2023-07-09T09:35:28;2.28;;;1.73;;
50858;SDS011;36826;47.514;19.056;2023-07-09T09:37:56;2.00;;;1.80;;
50858;SDS011;36826;47.514;19.056;2023-07-09T09:40:23;3.00;;;2.00;;
50858;SDS011;36826;47.514;19.056;2023-07-09T09:42:51;1.88;;;1.60;;
50858;SDS011;36826;47.514;19.056;2023-07-09T09:45:20;1.75;;;1.60;;
50858;SDS011;36826;47.514;19.056;2023-07-09T09:47:47;2.50;;;1.73;;
50858;SDS011;36826;47.514;19.056;2023-07-09T09:50:20;2.28;;;1.60;;
50858;SDS011;36826;47.514;19.056;2023-07-09T09:52:47;2.00;;;1.80;;
50858;SDS011;36826;47.514;19.056;2023-07-09T09:55:22;1.92;;;1.75;;
50858;SDS011;36826;47.514;19.056;2023-07-09T09:57:50;2.00;;;1.90;;
50858;SDS011;36826;47.514;19.056;2023-07-09T10:00:18;2.15;;;1.80;;
50858;SDS011;36826;47.514;19.056;2023-07-09T10:02:46;2.03;;;1.80;;
50858;SDS011;36826;47.514;19.056;2023-07-09T10:05:15;2.10;;;1.90;;
50858;SDS011;36826;47.514;19.056;2023-07-09T10:07:47;1.90;;;1.80;;
50858;SDS011;36826;47.514;19.056;2023-07-09T10:10:32;3.38;;;2.22;;
50858;SDS011;36826;47.514;19.056;2023-07-09T10:13:01;2.85;;;1.70;;
50858;SDS011;36826;47.514;19.056;2023-07-09T10:21:14;2.42;;;1.67;;
50858;SDS011;36826;47.514;19.056;2023-07-09T10:26:32;1.67;;;1.30;;
50858;SDS011;36826;47.514;19.056;2023-07-09T10:31:54;3.90;;;1.40;;
50858;SDS011;36826;47.514;19.056;2023-07-09T10:39:59;3.30;;;1.87;;
50858;SDS011;36826;47.514;19.056;2023-07-09T10:42:39;1.52;;;1.25;;
50858;SDS011;36826;47.514;19.056;2023-07-09T10:45:11;1.75;;;1.30;;
50858;SDS011;36826;47.514;19.056;2023-07-09T10:47:47;4.30;;;1.40;;
50858;SDS011;36826;47.514;19.056;2023-07-09T10:50:28;3.00;;;1.38;;
50858;SDS011;36826;47.514;19.056;2023-07-09T10:53:01;2.42;;;1.83;;
50858;SDS011;36826;47.514;19.056;2023-07-09T11:01:31;2.72;;;1.30;;
50858;SDS011;36826;47.514;19.056;2023-07-09T11:04:02;2.40;;;1.33;;
50858;SDS011;36826;47.514;19.056;2023-07-09T11:06:41;2.85;;;1.30;;
50858;SDS011;36826;47.514;19.056;2023-07-09T11:11:58;2.90;;;1.63;;
50858;SDS011;36826;47.514;19.056;2023-07-09T11:17:07;3.08;;;1.77;;
50858;SDS011;36826;47.514;19.056;2023-07-09T11:19:41;2.42;;;1.55;;
50858;SDS011;36826;47.514;19.056;2023-07-09T11:22:21;1.60;;;1.30;;
50858;SDS011;36826;47.514;19.056;2023-07-09T11:24:52;2.00;;;1.40;;
50858;SDS011;36826;47.514;19.056;2023-07-09T11:27:32;2.70;;;1.42;;
50858;SDS011;36826;47.514;19.056;2023-07-09T11:30:03;1.45;;;1.10;;
50858;SDS011;36826;47.514;19.056;2023-07-09T11:32:45;3.40;;;1.52;;
50858;SDS011;36826;47.514;19.056;2023-07-09T11:35:21;2.13;;;1.40;;
50858;SDS011;36826;47.514;19.056;2023-07-09T11:37:49;4.47;;;1.90;;
50858;SDS011;36826;47.514;19.056;2023-07-09T11:40:15;2.08;;;1.52;;
50858;SDS011;36826;47.514;19.056;2023-07-09T11:42:48;1.85;;;1.40;;
50858;SDS011;36826;47.514;19.056;2023-07-09T11:45:17;2.65;;;1.70;;
50858;SDS011;36826;47.514;19.056;2023-07-09T11:50:38;3.55;;;1.42;;
50858;SDS011;36826;47.514;19.056;2023-07-09T11:55:57;2.55;;;1.50;;
50858;SDS011;36826;47.514;19.056;2023-07-09T11:58:22;2.58;;;2.13;;
50858;SDS011;36826;47.514;19.056;2023-07-09T12:00:51;2.55;;;1.33;;
50858;SDS011;36826;47.514;19.056;2023-07-09T12:03:27;2.85;;;1.45;;
50858;SDS011;36826;47.514;19.056;2023-07-09T12:06:00;3.53;;;1.45;;
50858;SDS011;36826;47.514;19.056;2023-07-09T12:08:34;2.63;;;1.70;;
50858;SDS011;36826;47.514;19.056;2023-07-09T12:11:02;2.63;;;1.58;;
50858;SDS011;36826;47.514;19.056;2023-07-09T12:13:28;3.85;;;1.60;;
50858;SDS011;36826;47.514;19.056;2023-07-09T12:15:54;3.25;;;1.80;;
50858;SDS011;36826;47.514;19.056;2023-07-09T12:18:19;1.85;;;1.50;;
50858;SDS011;36826;47.514;19.056;2023-07-09T12:20:49;3.45;;;1.52;;
50858;SDS011;36826;47.514;19.056;2023-07-09T12:23:22;3.00;;;1.42;;
50858;SDS011;36826;47.514;19.056;2023-07-09T12:25:52;2.35;;;1.50;;
50858;SDS011;36826;47.514;19.056;2023-07-09T12:28:19;2.42;;;1.85;;
50858;SDS011;36826;47.514;19.056;2023-07-09T12:30:49;2.67;;;1.95;;
50858;SDS011;36826;47.514;19.056;2023-07-09T12:33:17;2.80;;;1.70;;
50858;SDS011;36826;47.514;19.056;2023-07-09T12:35:44;2.70;;;1.70;;
50858;SDS011;36826;47.514;19.056;2023-07-09T12:38:17;3.28;;;1.90;;
50858;SDS011;36826;47.514;19.056;2023-07-09T12:40:45;2.38;;;1.67;;
50858;SDS011;36826;47.514;19.056;2023-07-09T12:43:12;1.90;;;1.70;;
50858;SDS011;36826;47.514;19.056;2023-07-09T12:45:38;3.40;;;1.90;;
50858;SDS011;36826;47.514;19.056;2023-07-09T12:48:03;2.53;;;1.52;;
50858;SDS011;36826;47.514;19.056;2023-07-09T12:53:03;2.70;;;1.80;;
50858;SDS011;36826;47.514;19.056;2023-07-09T12:55:39;2.88;;;1.63;;
50858;SDS011;36826;47.514;19.056;2023-07-09T12:58:19;3.03;;;1.90;;
50858;SDS011;36826;47.514;19.056;2023-07-09T13:00:50;2.88;;;1.70;;
50858;SDS011;36826;47.514;19.056;2023-07-09T13:03:21;4.03;;;1.67;;
50858;SDS011;36826;47.514;19.056;2023-07-09T13:05:55;2.05;;;1.60;;
50858;SDS011;36826;47.514;19.056;2023-07-09T13:08:26;2.83;;;1.75;;
50858;SDS011;36826;47.514;19.056;2023-07-09T13:10:53;1.60;;;1.50;;
50858;SDS011;36826;47.514;19.056;2023-07-09T13:13:21;2.30;;;1.60;;
50858;SDS011;36826;47.514;19.056;2023-07-09T13:18:25;2.53;;;1.75;;
50858;SDS011;36826;47.514;19.056;2023-07-09T13:20:51;2.58;;;1.75;;
50858;SDS011;36826;47.514;19.056;2023-07-09T13:23:20;2.42;;;1.73;;
50858;SDS011;36826;47.514;19.056;2023-07-09T13:25:49;2.67;;;1.70;;
50858;SDS011;36826;47.514;19.056;2023-07-09T13:28:15;2.35;;;1.30;;
50858;SDS011;36826;47.514;19.056;2023-07-09T13:30:42;4.13;;;1.80;;
50858;SDS011;36826;47.514;19.056;2023-07-09T13:33:09;2.25;;;1.58;;
50858;SDS011;36826;47.514;19.056;2023-07-09T13:35:35;2.80;;;1.60;;
50858;SDS011;36826;47.514;19.056;2023-07-09T13:38:01;2.57;;;1.70;;
50858;SDS011;36826;47.514;19.056;2023-07-09T13:40:29;2.70;;;1.67;;
50858;SDS011;36826;47.514;19.056;2023-07-09T13:42:55;1.98;;;1.50;;
50858;SDS011;36826;47.514;19.056;2023-07-09T13:45:23;2.85;;;1.50;;
50858;SDS011;36826;47.514;19.056;2023-07-09T13:47:52;3.28;;;1.80;;
50858;SDS011;36826;47.514;19.056;2023-07-09T13:50:18;3.17;;;1.60;;
50858;SDS011;36826;47.514;19.056;2023-07-09T13:52:45;2.42;;;1.40;;
50858;SDS011;36826;47.514;19.056;2023-07-09T13:55:15;2.92;;;1.50;;
50858;SDS011;36826;47.514;19.056;2023-07-09T13:57:43;3.45;;;1.70;;
50858;SDS011;36826;47.514;19.056;2023-07-09T14:00:10;2.00;;;1.67;;
50858;SDS011;36826;47.514;19.056;2023-07-09T14:02:37;2.85;;;1.70;;
50858;SDS011;36826;47.514;19.056;2023-07-09T14:05:03;3.40;;;1.60;;
50858;SDS011;36826;47.514;19.056;2023-07-09T14:07:33;2.40;;;1.70;;
50858;SDS011;36826;47.514;19.056;2023-07-09T14:10:01;2.53;;;1.80;;
50858;SDS011;36826;47.514;19.056;2023-07-09T14:12:27;2.58;;;1.70;;
50858;SDS011;36826;47.514;19.056;2023-07-09T14:14:56;3.05;;;1.70;;
50858;SDS011;36826;47.514;19.056;2023-07-09T14:17:24;2.65;;;1.70;;
50858;SDS011;36826;47.514;19.056;2023-07-09T14:19:50;3.25;;;1.80;;
50858;SDS011;36826;47.514;19.056;2023-07-09T14:24:56;2.40;;;1.88;;
50858;SDS011;36826;47.514;19.056;2023-07-09T14:27:22;2.05;;;1.80;;
50858;SDS011;36826;47.514;19.056;2023-07-09T14:29:47;2.83;;;1.85;;
50858;SDS011;36826;47.514;19.056;2023-07-09T14:32:31;2.50;;;1.55;;
50858;SDS011;36826;47.514;19.056;2023-07-09T14:34:59;2.25;;;1.45;;
50858;SDS011;36826;47.514;19.056;2023-07-09T14:37:26;2.55;;;1.80;;
50858;SDS011;36826;47.514;19.056;2023-07-09T14:39:52;2.47;;;1.88;;
50858;SDS011;36826;47.514;19.056;2023-07-09T14:42:18;4.55;;;1.63;;
50858;SDS011;36826;47.514;19.056;2023-07-09T14:44:44;2.55;;;1.80;;
50858;SDS011;36826;47.514;19.056;2023-07-09T14:47:19;5.38;;;1.90;;
50858;SDS011;36826;47.514;19.056;2023-07-09T14:49:46;4.50;;;1.53;;
50858;SDS011;36826;47.514;19.056;2023-07-09T14:52:17;2.85;;;1.80;;
50858;SDS011;36826;47.514;19.056;2023-07-09T14:54:46;2.83;;;2.08;;
50858;SDS011;36826;47.514;19.056;2023-07-09T14:59:46;2.13;;;1.75;;
50858;SDS011;36826;47.514;19.056;2023-07-09T15:05:00;3.20;;;1.75;;
50858;SDS011;36826;47.514;19.056;2023-07-09T15:07:31;3.33;;;1.77;;
50858;SDS011;36826;47.514;19.056;2023-07-09T15:09:57;2.65;;;1.90;;
50858;SDS011;36826;47.514;19.056;2023-07-09T15:12:27;2.58;;;1.90;;
50858;SDS011;36826;47.514;19.056;2023-07-09T15:17:45;2.05;;;1.70;;
50858;SDS011;36826;47.514;19.056;2023-07-09T15:20:15;2.25;;;1.77;;
50858;SDS011;36826;47.514;19.056;2023-07-09T15:22:47;2.53;;;2.00;;
50858;SDS011;36826;47.514;19.056;2023-07-09T15:25:14;3.28;;;1.70;;
50858;SDS011;36826;47.514;19.056;2023-07-09T15:27:42;3.30;;;1.73;;
50858;SDS011;36826;47.514;19.056;2023-07-09T15:30:15;1.95;;;1.60;;
50858;SDS011;36826;47.514;19.056;2023-07-09T15:32:45;3.08;;;1.80;;
50858;SDS011;36826;47.514;19.056;2023-07-09T15:37:38;2.40;;;1.67;;
50858;SDS011;36826;47.514;19.056;2023-07-09T15:40:04;3.15;;;1.73;;
50858;SDS011;36826;47.514;19.056;2023-07-09T15:42:38;2.97;;;1.70;;
50858;SDS011;36826;47.514;19.056;2023-07-09T15:45:03;4.15;;;2.00;;
50858;SDS011;36826;47.514;19.056;2023-07-09T15:47:29;3.85;;;2.17;;
50858;SDS011;36826;47.514;19.056;2023-07-09T15:49:55;3.00;;;1.88;;
50858;SDS011;36826;47.514;19.056;2023-07-09T15:52:20;4.57;;;1.88;;